sensor_id;sensor_type;location;lat;lon;timestamp;P1;durP1;ratioP1;P2;durP2;ratioP2
49548;SDS011;35450;44.518;7.466;2023-04-15T00:03:03;5.57;;;1.55;;
49548;SDS011;35450;44.518;7.466;2023-04-15T00:06:10;4.38;;;1.23;;
49548;SDS011;35450;44.518;7.466;2023-04-15T00:09:15;2.83;;;1.20;;
49548;SDS011;35450;44.518;7.466;2023-04-15T00:12:18;6.93;;;1.33;;
49548;SDS011;35450;44.518;7.466;2023-04-15T00:15:23;4.43;;;1.23;;
49548;SDS011;35450;44.518;7.466;2023-04-15T00:18:28;3.63;;;1.10;;
49548;SDS011;35450;44.518;7.466;2023-04-15T00:21:31;4.97;;;1.25;;
49548;SDS011;35450;44.518;7.466;2023-04-15T00:24:36;6.28;;;1.42;;
49548;SDS011;35450;44.518;7.466;2023-04-15T00:27:40;7.28;;;1.63;;
49548;SDS011;35450;44.518;7.466;2023-04-15T00:30:45;4.50;;;1.60;;
49548;SDS011;35450;44.518;7.466;2023-04-15T00:33:49;6.05;;;1.33;;
49548;SDS011;35450;44.518;7.466;2023-04-15T00:36:53;5.13;;;1.95;;
49548;SDS011;35450;44.518;7.466;2023-04-15T00:39:57;5.07;;;1.50;;
49548;SDS011;35450;44.518;7.466;2023-04-15T00:43:01;4.70;;;1.42;;
49548;SDS011;35450;44.518;7.466;2023-04-15T00:46:06;4.43;;;0.80;;
49548;SDS011;35450;44.518;7.466;2023-04-15T00:49:11;7.50;;;1.38;;
49548;SDS011;35450;44.518;7.466;2023-04-15T00:52:15;13.20;;;1.55;;
49548;SDS011;35450;44.518;7.466;2023-04-15T00:55:19;4.72;;;1.20;;
49548;SDS011;35450;44.518;7.466;2023-04-15T00:58:23;2.90;;;1.13;;
49548;SDS011;35450;44.518;7.466;2023-04-15T01:01:28;3.00;;;1.63;;
49548;SDS011;35450;44.518;7.466;2023-04-15T01:04:32;2.03;;;1.00;;
49548;SDS011;35450;44.518;7.466;2023-04-15T01:07:36;3.60;;;1.23;;
49548;SDS011;35450;44.518;7.466;2023-04-15T01:10:40;2.47;;;0.85;;
49548;SDS011;35450;44.518;7.466;2023-04-15T01:13:44;3.90;;;1.00;;
49548;SDS011;35450;44.518;7.466;2023-04-15T01:16:48;1.73;;;0.70;;
49548;SDS011;35450;44.518;7.466;2023-04-15T01:19:54;3.00;;;1.25;;
49548;SDS011;35450;44.518;7.466;2023-04-15T01:22:59;5.82;;;0.85;;
49548;SDS011;35450;44.518;7.466;2023-04-15T01:26:04;6.38;;;1.15;;
49548;SDS011;35450;44.518;7.466;2023-04-15T01:29:11;6.63;;;0.88;;
49548;SDS011;35450;44.518;7.466;2023-04-15T01:32:15;2.45;;;1.30;;
49548;SDS011;35450;44.518;7.466;2023-04-15T01:35:39;2.08;;;0.85;;
49548;SDS011;35450;44.518;7.466;2023-04-15T01:38:46;3.90;;;1.77;;
49548;SDS011;35450;44.518;7.466;2023-04-15T01:41:51;7.18;;;2.47;;
49548;SDS011;35450;44.518;7.466;2023-04-15T01:44:56;3.85;;;1.45;;
49548;SDS011;35450;44.518;7.466;2023-04-15T01:48:00;7.15;;;1.20;;
49548;SDS011;35450;44.518;7.466;2023-04-15T01:51:06;2.70;;;1.00;;
49548;SDS011;35450;44.518;7.466;2023-04-15T01:54:11;4.05;;;0.90;;
49548;SDS011;35450;44.518;7.466;2023-04-15T01:57:16;14.43;;;2.97;;
49548;SDS011;35450;44.518;7.466;2023-04-15T02:00:21;8.75;;;1.40;;
49548;SDS011;35450;44.518;7.466;2023-04-15T02:03:27;10.25;;;2.67;;
49548;SDS011;35450;44.518;7.466;2023-04-15T02:06:33;7.20;;;2.25;;
49548;SDS011;35450;44.518;7.466;2023-04-15T02:09:38;8.43;;;2.33;;
49548;SDS011;35450;44.518;7.466;2023-04-15T02:12:47;10.90;;;1.48;;
49548;SDS011;35450;44.518;7.466;2023-04-15T02:15:53;3.28;;;1.00;;
49548;SDS011;35450;44.518;7.466;2023-04-15T02:18:59;2.88;;;1.20;;
49548;SDS011;35450;44.518;7.466;2023-04-15T02:22:05;6.00;;;0.95;;
49548;SDS011;35450;44.518;7.466;2023-04-15T02:25:13;6.68;;;1.38;;
49548;SDS011;35450;44.518;7.466;2023-04-15T02:28:20;5.75;;;1.10;;
49548;SDS011;35450;44.518;7.466;2023-04-15T02:31:26;7.60;;;1.63;;
49548;SDS011;35450;44.518;7.466;2023-04-15T02:34:31;6.05;;;1.60;;
49548;SDS011;35450;44.518;7.466;2023-04-15T02:37:37;4.38;;;1.48;;
49548;SDS011;35450;44.518;7.466;2023-04-15T02:40:48;1.50;;;0.50;;
49548;SDS011;35450;44.518;7.466;2023-04-15T02:43:54;1.90;;;0.70;;
49548;SDS011;35450;44.518;7.466;2023-04-15T02:47:00;1.42;;;0.45;;
49548;SDS011;35450;44.518;7.466;2023-04-15T02:50:06;8.32;;;1.00;;
49548;SDS011;35450;44.518;7.466;2023-04-15T02:53:13;3.38;;;1.20;;
49548;SDS011;35450;44.518;7.466;2023-04-15T02:56:18;6.45;;;1.63;;
49548;SDS011;35450;44.518;7.466;2023-04-15T02:59:23;5.82;;;0.80;;
49548;SDS011;35450;44.518;7.466;2023-04-15T03:02:33;4.88;;;0.80;;
49548;SDS011;35450;44.518;7.466;2023-04-15T03:05:43;6.63;;;1.17;;
49548;SDS011;35450;44.518;7.466;2023-04-15T03:08:48;4.00;;;1.67;;
49548;SDS011;35450;44.518;7.466;2023-04-15T03:11:53;1.25;;;0.82;;
49548;SDS011;35450;44.518;7.466;2023-04-15T03:14:59;2.72;;;0.70;;
49548;SDS011;35450;44.518;7.466;2023-04-15T03:18:12;3.85;;;0.95;;
49548;SDS011;35450;44.518;7.466;2023-04-15T03:21:18;4.53;;;1.55;;
49548;SDS011;35450;44.518;7.466;2023-04-15T03:24:26;10.65;;;0.80;;
49548;SDS011;35450;44.518;7.466;2023-04-15T03:27:34;1.17;;;0.47;;
49548;SDS011;35450;44.518;7.466;2023-04-15T03:30:41;0.85;;;0.50;;
49548;SDS011;35450;44.518;7.466;2023-04-15T03:33:46;2.75;;;0.40;;
49548;SDS011;35450;44.518;7.466;2023-04-15T03:36:52;0.95;;;0.50;;
49548;SDS011;35450;44.518;7.466;2023-04-15T03:39:57;1.45;;;0.52;;
49548;SDS011;35450;44.518;7.466;2023-04-15T03:43:02;3.13;;;0.40;;
49548;SDS011;35450;44.518;7.466;2023-04-15T03:46:07;0.98;;;0.45;;
49548;SDS011;35450;44.518;7.466;2023-04-15T03:49:12;3.60;;;0.63;;
49548;SDS011;35450;44.518;7.466;2023-04-15T03:52:17;0.77;;;0.45;;
49548;SDS011;35450;44.518;7.466;2023-04-15T03:55:23;2.13;;;0.65;;
49548;SDS011;35450;44.518;7.466;2023-04-15T03:58:29;1.52;;;0.60;;
49548;SDS011;35450;44.518;7.466;2023-04-15T04:01:34;2.10;;;0.50;;
49548;SDS011;35450;44.518;7.466;2023-04-15T04:04:39;1.83;;;0.60;;
49548;SDS011;35450;44.518;7.466;2023-04-15T04:07:45;2.33;;;0.80;;
49548;SDS011;35450;44.518;7.466;2023-04-15T04:10:51;1.52;;;0.50;;
49548;SDS011;35450;44.518;7.466;2023-04-15T04:13:56;4.55;;;0.50;;
49548;SDS011;35450;44.518;7.466;2023-04-15T04:17:01;2.30;;;0.30;;
49548;SDS011;35450;44.518;7.466;2023-04-15T04:20:06;2.35;;;0.50;;
49548;SDS011;35450;44.518;7.466;2023-04-15T04:23:12;2.78;;;0.40;;
49548;SDS011;35450;44.518;7.466;2023-04-15T04:26:17;1.33;;;0.50;;
49548;SDS011;35450;44.518;7.466;2023-04-15T04:29:23;0.82;;;0.35;;
49548;SDS011;35450;44.518;7.466;2023-04-15T04:32:28;37.85;;;2.63;;
49548;SDS011;35450;44.518;7.466;2023-04-15T04:35:33;1.23;;;0.50;;
49548;SDS011;35450;44.518;7.466;2023-04-15T04:38:41;5.85;;;0.60;;
49548;SDS011;35450;44.518;7.466;2023-04-15T04:41:46;0.80;;;0.30;;
49548;SDS011;35450;44.518;7.466;2023-04-15T04:44:51;0.52;;;0.30;;
49548;SDS011;35450;44.518;7.466;2023-04-15T04:47:56;1.75;;;0.40;;
49548;SDS011;35450;44.518;7.466;2023-04-15T04:51:01;0.93;;;0.40;;
49548;SDS011;35450;44.518;7.466;2023-04-15T04:54:07;2.50;;;0.55;;
49548;SDS011;35450;44.518;7.466;2023-04-15T04:57:12;3.05;;;0.50;;
49548;SDS011;35450;44.518;7.466;2023-04-15T05:00:17;1.85;;;0.60;;
49548;SDS011;35450;44.518;7.466;2023-04-15T05:03:23;1.45;;;0.32;;
49548;SDS011;35450;44.518;7.466;2023-04-15T05:06:28;3.85;;;0.95;;
49548;SDS011;35450;44.518;7.466;2023-04-15T05:09:34;4.60;;;1.80;;
49548;SDS011;35450;44.518;7.466;2023-04-15T05:12:40;3.90;;;0.30;;
49548;SDS011;35450;44.518;7.466;2023-04-15T05:15:45;0.82;;;0.50;;
49548;SDS011;35450;44.518;7.466;2023-04-15T05:18:51;1.75;;;0.38;;
49548;SDS011;35450;44.518;7.466;2023-04-15T05:21:56;1.27;;;0.60;;
49548;SDS011;35450;44.518;7.466;2023-04-15T05:25:01;5.13;;;1.10;;
49548;SDS011;35450;44.518;7.466;2023-04-15T05:28:07;4.75;;;1.63;;
49548;SDS011;35450;44.518;7.466;2023-04-15T05:31:12;14.38;;;5.05;;
49548;SDS011;35450;44.518;7.466;2023-04-15T05:34:17;9.05;;;3.53;;
49548;SDS011;35450;44.518;7.466;2023-04-15T05:37:23;4.47;;;2.20;;
49548;SDS011;35450;44.518;7.466;2023-04-15T05:40:29;6.07;;;2.67;;
49548;SDS011;35450;44.518;7.466;2023-04-15T05:43:35;6.05;;;1.77;;
49548;SDS011;35450;44.518;7.466;2023-04-15T05:46:40;4.47;;;1.58;;
49548;SDS011;35450;44.518;7.466;2023-04-15T05:49:46;5.68;;;1.40;;
49548;SDS011;35450;44.518;7.466;2023-04-15T05:52:51;2.22;;;1.33;;
49548;SDS011;35450;44.518;7.466;2023-04-15T05:55:56;5.63;;;1.58;;
49548;SDS011;35450;44.518;7.466;2023-04-15T05:59:01;2.53;;;1.00;;
49548;SDS011;35450;44.518;7.466;2023-04-15T06:02:08;1.25;;;0.82;;
49548;SDS011;35450;44.518;7.466;2023-04-15T06:05:14;11.60;;;1.25;;
49548;SDS011;35450;44.518;7.466;2023-04-15T06:08:19;4.35;;;0.70;;
49548;SDS011;35450;44.518;7.466;2023-04-15T06:11:25;1.30;;;0.60;;
49548;SDS011;35450;44.518;7.466;2023-04-15T06:14:30;2.22;;;1.00;;
49548;SDS011;35450;44.518;7.466;2023-04-15T06:17:35;5.18;;;0.90;;
49548;SDS011;35450;44.518;7.466;2023-04-15T06:20:40;3.15;;;1.13;;
49548;SDS011;35450;44.518;7.466;2023-04-15T06:23:46;4.75;;;1.80;;
49548;SDS011;35450;44.518;7.466;2023-04-15T06:26:51;5.65;;;1.70;;
49548;SDS011;35450;44.518;7.466;2023-04-15T06:29:56;7.28;;;1.92;;
49548;SDS011;35450;44.518;7.466;2023-04-15T06:33:01;6.18;;;1.70;;
49548;SDS011;35450;44.518;7.466;2023-04-15T06:36:09;3.50;;;1.27;;
49548;SDS011;35450;44.518;7.466;2023-04-15T06:39:14;2.75;;;1.52;;
49548;SDS011;35450;44.518;7.466;2023-04-15T06:42:19;6.05;;;1.58;;
49548;SDS011;35450;44.518;7.466;2023-04-15T06:45:26;3.40;;;1.55;;
49548;SDS011;35450;44.518;7.466;2023-04-15T06:48:31;5.50;;;1.60;;
49548;SDS011;35450;44.518;7.466;2023-04-15T06:51:36;3.47;;;1.20;;
49548;SDS011;35450;44.518;7.466;2023-04-15T06:54:42;5.25;;;1.00;;
49548;SDS011;35450;44.518;7.466;2023-04-15T06:57:47;1.90;;;0.80;;
49548;SDS011;35450;44.518;7.466;2023-04-15T07:00:52;2.72;;;1.20;;
49548;SDS011;35450;44.518;7.466;2023-04-15T07:03:58;4.00;;;1.30;;
49548;SDS011;35450;44.518;7.466;2023-04-15T07:07:03;2.78;;;1.30;;
49548;SDS011;35450;44.518;7.466;2023-04-15T07:10:09;3.35;;;1.27;;
49548;SDS011;35450;44.518;7.466;2023-04-15T07:13:16;2.67;;;1.23;;
49548;SDS011;35450;44.518;7.466;2023-04-15T07:16:22;4.70;;;1.05;;
49548;SDS011;35450;44.518;7.466;2023-04-15T07:19:28;5.70;;;0.90;;
49548;SDS011;35450;44.518;7.466;2023-04-15T07:22:33;4.72;;;0.82;;
49548;SDS011;35450;44.518;7.466;2023-04-15T07:25:38;5.53;;;1.00;;
49548;SDS011;35450;44.518;7.466;2023-04-15T07:28:43;5.95;;;1.20;;
49548;SDS011;35450;44.518;7.466;2023-04-15T07:31:50;6.65;;;1.00;;
49548;SDS011;35450;44.518;7.466;2023-04-15T07:34:55;4.72;;;1.20;;
49548;SDS011;35450;44.518;7.466;2023-04-15T07:38:01;1.70;;;0.90;;
49548;SDS011;35450;44.518;7.466;2023-04-15T07:41:06;9.05;;;1.67;;
49548;SDS011;35450;44.518;7.466;2023-04-15T07:44:11;4.43;;;1.60;;
49548;SDS011;35450;44.518;7.466;2023-04-15T07:47:17;7.55;;;1.35;;
49548;SDS011;35450;44.518;7.466;2023-04-15T07:50:22;2.50;;;1.10;;
49548;SDS011;35450;44.518;7.466;2023-04-15T07:53:28;15.05;;;1.65;;
49548;SDS011;35450;44.518;7.466;2023-04-15T07:56:34;11.55;;;1.38;;
49548;SDS011;35450;44.518;7.466;2023-04-15T07:59:39;4.35;;;1.30;;
49548;SDS011;35450;44.518;7.466;2023-04-15T08:02:45;6.60;;;1.25;;
49548;SDS011;35450;44.518;7.466;2023-04-15T08:05:51;2.75;;;1.20;;
49548;SDS011;35450;44.518;7.466;2023-04-15T08:08:58;7.22;;;1.40;;
49548;SDS011;35450;44.518;7.466;2023-04-15T08:12:03;3.42;;;1.05;;
49548;SDS011;35450;44.518;7.466;2023-04-15T08:15:10;1.67;;;0.80;;
49548;SDS011;35450;44.518;7.466;2023-04-15T08:18:16;4.72;;;0.88;;
49548;SDS011;35450;44.518;7.466;2023-04-15T08:21:22;2.47;;;0.60;;
49548;SDS011;35450;44.518;7.466;2023-04-15T08:24:27;6.88;;;0.90;;
49548;SDS011;35450;44.518;7.466;2023-04-15T08:27:33;1.88;;;0.90;;
49548;SDS011;35450;44.518;7.466;2023-04-15T08:30:38;3.33;;;0.93;;
49548;SDS011;35450;44.518;7.466;2023-04-15T08:33:44;1.77;;;0.80;;
49548;SDS011;35450;44.518;7.466;2023-04-15T08:36:50;4.35;;;1.00;;
49548;SDS011;35450;44.518;7.466;2023-04-15T08:39:56;2.33;;;1.02;;
49548;SDS011;35450;44.518;7.466;2023-04-15T08:43:01;3.22;;;1.13;;
49548;SDS011;35450;44.518;7.466;2023-04-15T08:46:09;3.03;;;0.77;;
49548;SDS011;35450;44.518;7.466;2023-04-15T08:49:15;3.28;;;1.02;;
49548;SDS011;35450;44.518;7.466;2023-04-15T08:52:24;2.40;;;0.90;;
49548;SDS011;35450;44.518;7.466;2023-04-15T08:55:32;10.13;;;1.13;;
49548;SDS011;35450;44.518;7.466;2023-04-15T08:58:40;5.07;;;1.10;;
49548;SDS011;35450;44.518;7.466;2023-04-15T09:01:45;1.45;;;0.80;;
49548;SDS011;35450;44.518;7.466;2023-04-15T09:57:55;6.15;;;1.55;;
49548;SDS011;35450;44.518;7.466;2023-04-15T10:01:04;5.72;;;1.10;;
49548;SDS011;35450;44.518;7.466;2023-04-15T10:04:12;4.68;;;1.00;;
49548;SDS011;35450;44.518;7.466;2023-04-15T10:07:19;3.38;;;1.00;;
49548;SDS011;35450;44.518;7.466;2023-04-15T10:10:26;5.28;;;1.08;;
49548;SDS011;35450;44.518;7.466;2023-04-15T10:13:32;2.53;;;1.15;;
49548;SDS011;35450;44.518;7.466;2023-04-15T10:16:40;7.65;;;1.40;;
49548;SDS011;35450;44.518;7.466;2023-04-15T10:19:47;29.13;;;1.65;;
49548;SDS011;35450;44.518;7.466;2023-04-15T10:22:53;3.92;;;1.02;;
49548;SDS011;35450;44.518;7.466;2023-04-15T10:25:59;4.72;;;1.02;;
49548;SDS011;35450;44.518;7.466;2023-04-15T10:29:04;3.72;;;0.90;;
49548;SDS011;35450;44.518;7.466;2023-04-15T10:32:10;5.32;;;0.88;;
49548;SDS011;35450;44.518;7.466;2023-04-15T10:35:16;5.00;;;0.80;;
49548;SDS011;35450;44.518;7.466;2023-04-15T10:38:30;2.10;;;0.80;;
49548;SDS011;35450;44.518;7.466;2023-04-15T10:41:37;5.90;;;0.98;;
49548;SDS011;35450;44.518;7.466;2023-04-15T10:44:43;10.00;;;1.35;;
49548;SDS011;35450;44.518;7.466;2023-04-15T10:47:54;13.50;;;1.77;;
49548;SDS011;35450;44.518;7.466;2023-04-15T10:51:00;6.30;;;0.95;;
49548;SDS011;35450;44.518;7.466;2023-04-15T10:57:38;7.60;;;1.20;;
49548;SDS011;35450;44.518;7.466;2023-04-15T11:00:49;4.93;;;1.55;;
49548;SDS011;35450;44.518;7.466;2023-04-15T11:03:58;3.30;;;1.45;;
49548;SDS011;35450;44.518;7.466;2023-04-15T11:07:05;4.35;;;1.30;;
49548;SDS011;35450;44.518;7.466;2023-04-15T11:13:22;8.07;;;1.70;;
49548;SDS011;35450;44.518;7.466;2023-04-15T11:16:30;6.80;;;1.33;;
49548;SDS011;35450;44.518;7.466;2023-04-15T11:19:38;8.35;;;2.85;;
49548;SDS011;35450;44.518;7.466;2023-04-15T11:22:47;5.28;;;2.13;;
49548;SDS011;35450;44.518;7.466;2023-04-15T11:25:54;4.07;;;1.98;;
49548;SDS011;35450;44.518;7.466;2023-04-15T11:29:01;5.70;;;2.22;;
49548;SDS011;35450;44.518;7.466;2023-04-15T11:32:09;5.10;;;2.20;;
49548;SDS011;35450;44.518;7.466;2023-04-15T11:35:15;7.13;;;1.60;;
49548;SDS011;35450;44.518;7.466;2023-04-15T11:38:21;6.22;;;2.08;;
49548;SDS011;35450;44.518;7.466;2023-04-15T11:41:26;3.50;;;2.00;;
49548;SDS011;35450;44.518;7.466;2023-04-15T11:44:32;3.08;;;1.23;;
49548;SDS011;35450;44.518;7.466;2023-04-15T11:47:37;8.88;;;2.08;;
49548;SDS011;35450;44.518;7.466;2023-04-15T11:50:43;6.93;;;1.73;;
49548;SDS011;35450;44.518;7.466;2023-04-15T11:53:48;3.63;;;1.40;;
49548;SDS011;35450;44.518;7.466;2023-04-15T11:56:53;6.53;;;1.92;;
49548;SDS011;35450;44.518;7.466;2023-04-15T11:59:58;12.30;;;1.75;;
49548;SDS011;35450;44.518;7.466;2023-04-15T12:03:12;24.33;;;2.08;;
49548;SDS011;35450;44.518;7.466;2023-04-15T12:06:23;8.55;;;1.38;;
49548;SDS011;35450;44.518;7.466;2023-04-15T12:09:27;2.45;;;1.27;;
49548;SDS011;35450;44.518;7.466;2023-04-15T12:12:31;2.42;;;1.15;;
49548;SDS011;35450;44.518;7.466;2023-04-15T12:15:38;3.67;;;1.15;;
49548;SDS011;35450;44.518;7.466;2023-04-15T12:18:43;6.88;;;1.10;;
49548;SDS011;35450;44.518;7.466;2023-04-15T12:21:49;1.80;;;0.47;;
49548;SDS011;35450;44.518;7.466;2023-04-15T12:24:54;5.00;;;0.90;;
49548;SDS011;35450;44.518;7.466;2023-04-15T12:28:00;7.40;;;1.00;;
49548;SDS011;35450;44.518;7.466;2023-04-15T12:31:07;4.90;;;1.00;;
49548;SDS011;35450;44.518;7.466;2023-04-15T12:34:17;8.13;;;1.35;;
49548;SDS011;35450;44.518;7.466;2023-04-15T12:37:27;7.10;;;1.10;;
49548;SDS011;35450;44.518;7.466;2023-04-15T12:40:31;4.20;;;1.20;;
49548;SDS011;35450;44.518;7.466;2023-04-15T12:43:35;2.92;;;0.70;;
49548;SDS011;35450;44.518;7.466;2023-04-15T12:46:39;4.35;;;1.00;;
49548;SDS011;35450;44.518;7.466;2023-04-15T12:49:43;5.78;;;1.00;;
49548;SDS011;35450;44.518;7.466;2023-04-15T12:52:48;10.45;;;1.08;;
49548;SDS011;35450;44.518;7.466;2023-04-15T12:55:52;6.97;;;1.50;;
49548;SDS011;35450;44.518;7.466;2023-04-15T12:58:56;1.45;;;0.60;;
49548;SDS011;35450;44.518;7.466;2023-04-15T13:02:00;4.10;;;1.20;;
49548;SDS011;35450;44.518;7.466;2023-04-15T13:05:05;2.90;;;1.38;;
49548;SDS011;35450;44.518;7.466;2023-04-15T13:08:09;3.63;;;1.25;;
49548;SDS011;35450;44.518;7.466;2023-04-15T13:11:13;2.97;;;0.95;;
49548;SDS011;35450;44.518;7.466;2023-04-15T13:14:18;1.65;;;0.90;;
49548;SDS011;35450;44.518;7.466;2023-04-15T13:17:22;5.25;;;1.75;;
49548;SDS011;35450;44.518;7.466;2023-04-15T13:20:25;3.35;;;0.90;;
49548;SDS011;35450;44.518;7.466;2023-04-15T13:23:30;4.72;;;0.60;;
49548;SDS011;35450;44.518;7.466;2023-04-15T13:26:34;5.10;;;1.10;;
49548;SDS011;35450;44.518;7.466;2023-04-15T13:29:38;5.03;;;1.63;;
49548;SDS011;35450;44.518;7.466;2023-04-15T13:32:42;10.75;;;2.47;;
49548;SDS011;35450;44.518;7.466;2023-04-15T13:35:46;6.38;;;1.30;;
49548;SDS011;35450;44.518;7.466;2023-04-15T13:38:50;6.40;;;1.30;;
49548;SDS011;35450;44.518;7.466;2023-04-15T13:41:54;9.15;;;1.90;;
49548;SDS011;35450;44.518;7.466;2023-04-15T13:44:58;3.85;;;1.50;;
49548;SDS011;35450;44.518;7.466;2023-04-15T13:48:02;6.43;;;1.95;;
49548;SDS011;35450;44.518;7.466;2023-04-15T13:51:06;3.38;;;0.93;;
49548;SDS011;35450;44.518;7.466;2023-04-15T13:54:10;3.33;;;1.45;;
49548;SDS011;35450;44.518;7.466;2023-04-15T13:57:14;10.07;;;2.28;;
49548;SDS011;35450;44.518;7.466;2023-04-15T14:00:18;6.22;;;1.20;;
49548;SDS011;35450;44.518;7.466;2023-04-15T14:03:21;4.63;;;1.77;;
49548;SDS011;35450;44.518;7.466;2023-04-15T14:06:26;7.70;;;2.50;;
49548;SDS011;35450;44.518;7.466;2023-04-15T14:09:31;11.43;;;2.83;;
49548;SDS011;35450;44.518;7.466;2023-04-15T14:12:35;4.68;;;1.60;;
49548;SDS011;35450;44.518;7.466;2023-04-15T14:15:39;12.32;;;2.28;;
49548;SDS011;35450;44.518;7.466;2023-04-15T14:18:43;7.88;;;3.22;;
49548;SDS011;35450;44.518;7.466;2023-04-15T14:21:47;5.55;;;2.25;;
49548;SDS011;35450;44.518;7.466;2023-04-15T14:24:51;4.05;;;2.47;;
49548;SDS011;35450;44.518;7.466;2023-04-15T14:27:57;2.60;;;1.65;;
49548;SDS011;35450;44.518;7.466;2023-04-15T14:31:01;8.38;;;2.33;;
49548;SDS011;35450;44.518;7.466;2023-04-15T14:34:05;7.38;;;1.50;;
49548;SDS011;35450;44.518;7.466;2023-04-15T14:37:09;3.75;;;0.50;;
49548;SDS011;35450;44.518;7.466;2023-04-15T14:40:13;10.07;;;1.38;;
49548;SDS011;35450;44.518;7.466;2023-04-15T14:43:17;6.32;;;1.10;;
49548;SDS011;35450;44.518;7.466;2023-04-15T14:46:21;5.20;;;1.58;;
49548;SDS011;35450;44.518;7.466;2023-04-15T14:49:25;5.43;;;1.60;;
49548;SDS011;35450;44.518;7.466;2023-04-15T14:52:30;6.20;;;2.08;;
49548;SDS011;35450;44.518;7.466;2023-04-15T14:55:40;8.27;;;1.60;;
49548;SDS011;35450;44.518;7.466;2023-04-15T14:58:45;8.93;;;1.25;;
49548;SDS011;35450;44.518;7.466;2023-04-15T15:01:49;5.35;;;1.35;;
49548;SDS011;35450;44.518;7.466;2023-04-15T15:04:53;4.43;;;1.17;;
49548;SDS011;35450;44.518;7.466;2023-04-15T15:07:56;11.15;;;1.50;;
49548;SDS011;35450;44.518;7.466;2023-04-15T15:11:00;7.63;;;2.40;;
49548;SDS011;35450;44.518;7.466;2023-04-15T15:14:04;6.82;;;3.22;;
49548;SDS011;35450;44.518;7.466;2023-04-15T15:17:08;8.48;;;2.60;;
49548;SDS011;35450;44.518;7.466;2023-04-15T15:20:12;6.55;;;2.50;;
49548;SDS011;35450;44.518;7.466;2023-04-15T15:23:16;5.45;;;2.53;;
49548;SDS011;35450;44.518;7.466;2023-04-15T15:26:21;9.57;;;2.60;;
49548;SDS011;35450;44.518;7.466;2023-04-15T15:29:25;11.35;;;2.25;;
49548;SDS011;35450;44.518;7.466;2023-04-15T15:32:29;7.80;;;1.90;;
49548;SDS011;35450;44.518;7.466;2023-04-15T15:35:33;12.73;;;2.65;;
49548;SDS011;35450;44.518;7.466;2023-04-15T15:38:36;3.38;;;1.30;;
49548;SDS011;35450;44.518;7.466;2023-04-15T15:41:42;3.08;;;1.33;;
49548;SDS011;35450;44.518;7.466;2023-04-15T15:44:47;4.55;;;1.70;;
49548;SDS011;35450;44.518;7.466;2023-04-15T15:47:51;4.15;;;1.75;;
49548;SDS011;35450;44.518;7.466;2023-04-15T15:50:55;3.15;;;1.98;;
49548;SDS011;35450;44.518;7.466;2023-04-15T15:53:59;5.55;;;1.83;;
49548;SDS011;35450;44.518;7.466;2023-04-15T15:57:03;4.90;;;2.17;;
49548;SDS011;35450;44.518;7.466;2023-04-15T16:00:07;7.05;;;1.45;;
49548;SDS011;35450;44.518;7.466;2023-04-15T16:03:11;7.28;;;1.10;;
49548;SDS011;35450;44.518;7.466;2023-04-15T16:06:15;4.93;;;1.63;;
49548;SDS011;35450;44.518;7.466;2023-04-15T16:09:20;6.95;;;2.75;;
49548;SDS011;35450;44.518;7.466;2023-04-15T16:12:24;3.78;;;1.65;;
49548;SDS011;35450;44.518;7.466;2023-04-15T16:15:28;3.63;;;1.40;;
49548;SDS011;35450;44.518;7.466;2023-04-15T16:18:32;2.47;;;1.30;;
49548;SDS011;35450;44.518;7.466;2023-04-15T16:21:36;3.85;;;1.70;;
49548;SDS011;35450;44.518;7.466;2023-04-15T16:24:40;6.97;;;2.42;;
49548;SDS011;35450;44.518;7.466;2023-04-15T16:27:43;5.47;;;1.73;;
49548;SDS011;35450;44.518;7.466;2023-04-15T16:30:48;4.60;;;1.40;;
49548;SDS011;35450;44.518;7.466;2023-04-15T16:33:52;3.67;;;1.00;;
49548;SDS011;35450;44.518;7.466;2023-04-15T16:36:56;3.17;;;1.10;;
49548;SDS011;35450;44.518;7.466;2023-04-15T16:40:00;7.75;;;1.15;;
49548;SDS011;35450;44.518;7.466;2023-04-15T16:43:06;3.15;;;1.73;;
49548;SDS011;35450;44.518;7.466;2023-04-15T16:46:10;5.50;;;1.40;;
49548;SDS011;35450;44.518;7.466;2023-04-15T16:49:14;4.32;;;1.75;;
49548;SDS011;35450;44.518;7.466;2023-04-15T16:52:18;3.45;;;1.33;;
49548;SDS011;35450;44.518;7.466;2023-04-15T16:55:22;5.68;;;1.63;;
49548;SDS011;35450;44.518;7.466;2023-04-15T16:58:26;6.20;;;1.27;;
49548;SDS011;35450;44.518;7.466;2023-04-15T17:01:30;3.53;;;1.25;;
49548;SDS011;35450;44.518;7.466;2023-04-15T17:04:34;3.35;;;1.40;;
49548;SDS011;35450;44.518;7.466;2023-04-15T17:07:39;9.60;;;1.95;;
49548;SDS011;35450;44.518;7.466;2023-04-15T17:10:43;6.38;;;2.20;;
49548;SDS011;35450;44.518;7.466;2023-04-15T17:13:47;6.30;;;1.50;;
49548;SDS011;35450;44.518;7.466;2023-04-15T17:16:53;4.78;;;1.17;;
49548;SDS011;35450;44.518;7.466;2023-04-15T17:19:58;4.72;;;1.00;;
49548;SDS011;35450;44.518;7.466;2023-04-15T17:23:02;3.55;;;1.10;;
49548;SDS011;35450;44.518;7.466;2023-04-15T17:26:07;2.97;;;1.70;;
49548;SDS011;35450;44.518;7.466;2023-04-15T17:29:11;2.20;;;1.10;;
49548;SDS011;35450;44.518;7.466;2023-04-15T17:32:22;7.35;;;1.08;;
49548;SDS011;35450;44.518;7.466;2023-04-15T17:35:46;4.40;;;2.00;;
49548;SDS011;35450;44.518;7.466;2023-04-15T17:38:50;5.30;;;1.40;;
49548;SDS011;35450;44.518;7.466;2023-04-15T17:42:14;3.35;;;0.90;;
49548;SDS011;35450;44.518;7.466;2023-04-15T17:45:39;7.65;;;2.58;;
49548;SDS011;35450;44.518;7.466;2023-04-15T17:49:02;6.10;;;2.13;;
49548;SDS011;35450;44.518;7.466;2023-04-15T17:52:28;13.50;;;7.15;;
49548;SDS011;35450;44.518;7.466;2023-04-15T17:55:51;12.00;;;3.47;;
49548;SDS011;35450;44.518;7.466;2023-04-15T17:59:16;49.80;;;20.13;;
49548;SDS011;35450;44.518;7.466;2023-04-15T18:02:39;34.70;;;13.63;;
49548;SDS011;35450;44.518;7.466;2023-04-15T18:06:04;11.98;;;6.50;;
49548;SDS011;35450;44.518;7.466;2023-04-15T18:09:27;9.05;;;4.55;;
49548;SDS011;35450;44.518;7.466;2023-04-15T18:12:51;6.88;;;1.55;;
49548;SDS011;35450;44.518;7.466;2023-04-15T18:16:15;2.60;;;1.23;;
49548;SDS011;35450;44.518;7.466;2023-04-15T18:19:39;9.02;;;1.65;;
49548;SDS011;35450;44.518;7.466;2023-04-15T18:22:43;1.63;;;0.95;;
49548;SDS011;35450;44.518;7.466;2023-04-15T18:25:47;3.53;;;1.27;;
49548;SDS011;35450;44.518;7.466;2023-04-15T18:28:51;3.05;;;1.35;;
49548;SDS011;35450;44.518;7.466;2023-04-15T18:31:55;5.38;;;1.33;;
49548;SDS011;35450;44.518;7.466;2023-04-15T18:35:02;4.47;;;1.30;;
49548;SDS011;35450;44.518;7.466;2023-04-15T18:38:07;5.63;;;1.30;;
49548;SDS011;35450;44.518;7.466;2023-04-15T18:41:11;31.35;;;2.53;;
49548;SDS011;35450;44.518;7.466;2023-04-15T18:44:16;3.30;;;1.20;;
49548;SDS011;35450;44.518;7.466;2023-04-15T18:47:20;3.45;;;1.45;;
49548;SDS011;35450;44.518;7.466;2023-04-15T18:50:24;5.10;;;1.30;;
49548;SDS011;35450;44.518;7.466;2023-04-15T18:53:28;8.80;;;1.90;;
49548;SDS011;35450;44.518;7.466;2023-04-15T18:56:32;4.57;;;1.70;;
49548;SDS011;35450;44.518;7.466;2023-04-15T18:59:36;4.97;;;1.55;;
49548;SDS011;35450;44.518;7.466;2023-04-15T19:02:40;11.35;;;2.38;;
49548;SDS011;35450;44.518;7.466;2023-04-15T19:05:44;19.63;;;7.72;;
49548;SDS011;35450;44.518;7.466;2023-04-15T19:08:48;7.75;;;2.55;;
49548;SDS011;35450;44.518;7.466;2023-04-15T19:11:52;11.15;;;2.03;;
49548;SDS011;35450;44.518;7.466;2023-04-15T19:14:56;9.07;;;1.70;;
49548;SDS011;35450;44.518;7.466;2023-04-15T19:18:00;4.07;;;1.65;;
49548;SDS011;35450;44.518;7.466;2023-04-15T19:21:04;11.20;;;1.83;;
49548;SDS011;35450;44.518;7.466;2023-04-15T19:24:08;7.45;;;3.05;;
49548;SDS011;35450;44.518;7.466;2023-04-15T19:27:12;3.53;;;1.02;;
49548;SDS011;35450;44.518;7.466;2023-04-15T19:30:16;5.60;;;1.58;;
49548;SDS011;35450;44.518;7.466;2023-04-15T19:33:20;8.52;;;3.15;;
49548;SDS011;35450;44.518;7.466;2023-04-15T19:36:24;7.97;;;2.78;;
49548;SDS011;35450;44.518;7.466;2023-04-15T19:39:28;6.55;;;1.98;;